createdAt,value
2018-08-11T00:00:55.971Z,54.20
2018-08-11T00:03:25.637Z,54.00
2018-08-11T00:05:55.102Z,54.40
2018-08-11T00:08:24.577Z,54.40
2018-08-11T00:10:54.320Z,54.70
2018-08-11T00:13:24.596Z,55.40
2018-08-11T00:15:55.426Z,55.40
2018-08-11T00:18:25.108Z,55.50
2018-08-11T00:20:55.534Z,55.50
2018-08-11T00:23:25.668Z,55.70
2018-08-11T00:25:55.269Z,56.20
2018-08-11T00:31:03.831Z,55.80
2018-08-11T00:33:33.312Z,56.30
2018-08-11T00:36:02.844Z,56.20
2018-08-11T00:38:32.389Z,56.40
2018-08-11T00:41:01.942Z,56.40
2018-08-11T00:43:31.519Z,56.60
2018-08-11T00:46:01.032Z,56.60
2018-08-11T00:48:30.580Z,56.60
2018-08-11T00:51:00.101Z,56.60
2018-08-11T00:53:29.596Z,56.80
2018-08-11T00:55:59.135Z,57.00
2018-08-11T00:58:28.670Z,57.00
2018-08-11T01:00:58.212Z,57.10
2018-08-11T01:03:27.732Z,57.70
2018-08-11T01:05:57.186Z,57.40
2018-08-11T01:08:26.680Z,57.70
2018-08-11T01:10:56.279Z,57.40
2018-08-11T01:13:25.766Z,57.60
2018-08-11T01:15:55.253Z,57.70
2018-08-11T01:18:24.780Z,57.70
2018-08-11T01:20:54.276Z,57.80
2018-08-11T01:23:23.800Z,57.90
2018-08-11T01:25:53.320Z,58.10
2018-08-11T01:28:22.798Z,58.10
2018-08-11T01:30:52.353Z,58.10
2018-08-11T01:33:21.832Z,58.30
2018-08-11T01:35:51.315Z,58.30
2018-08-11T01:38:20.805Z,58.30
2018-08-11T01:40:50.350Z,58.50
2018-08-11T01:43:19.901Z,58.50
2018-08-11T01:45:49.432Z,58.60
2018-08-11T01:48:19.016Z,58.60
2018-08-11T01:50:48.615Z,58.80
2018-08-11T01:53:18.120Z,58.80
2018-08-11T01:55:47.628Z,58.90
2018-08-11T01:58:17.148Z,59.10
2018-08-11T02:00:47.270Z,59.10
2018-08-11T02:03:16.795Z,59.10
2018-08-11T02:05:46.276Z,59.40
2018-08-11T02:08:15.882Z,59.50
2018-08-11T02:10:45.504Z,59.80
2018-08-11T02:13:15.181Z,59.80
2018-08-11T02:15:44.670Z,59.90
2018-08-11T02:18:14.155Z,60.10
2018-08-11T02:20:43.635Z,60.20
2018-08-11T02:23:13.093Z,60.70
2018-08-11T02:25:42.647Z,60.70
2018-08-11T02:28:12.159Z,60.70
2018-08-11T02:30:41.673Z,60.60
2018-08-11T02:33:11.242Z,60.60
2018-08-11T02:35:40.703Z,60.60
2018-08-11T02:38:10.289Z,60.60
2018-08-11T02:40:39.821Z,60.60
2018-08-11T02:43:09.375Z,60.60
2018-08-11T02:45:38.938Z,60.60
2018-08-11T02:48:08.475Z,60.60
2018-08-11T02:50:37.987Z,60.60
2018-08-11T02:53:07.440Z,60.60
2018-08-11T02:55:36.920Z,60.60
2018-08-11T02:58:06.603Z,60.60
2018-08-11T03:00:36.105Z,61.00
2018-08-11T03:03:05.659Z,60.80
2018-08-11T03:05:35.137Z,61.00
2018-08-11T03:08:04.622Z,61.50
2018-08-11T03:10:34.177Z,61.30
2018-08-11T03:13:03.648Z,62.00
2018-08-11T03:15:33.132Z,61.90
2018-08-11T03:18:02.611Z,62.10
2018-08-11T03:20:32.123Z,62.40
2018-08-11T03:23:01.653Z,62.60
2018-08-11T03:25:31.139Z,63.10
2018-08-11T03:28:00.623Z,63.10
2018-08-11T03:30:30.204Z,63.30
2018-08-11T03:32:59.714Z,63.40
2018-08-11T03:35:29.278Z,63.80
2018-08-11T03:37:58.810Z,63.70
2018-08-11T03:40:28.393Z,63.90
2018-08-11T03:42:57.957Z,64.30
2018-08-11T03:45:27.421Z,64.10
2018-08-11T03:47:56.867Z,64.30
2018-08-11T03:50:26.350Z,64.40
2018-08-11T03:52:55.853Z,64.50
2018-08-11T03:55:25.321Z,64.90
2018-08-11T03:57:54.763Z,64.70
2018-08-11T04:00:24.427Z,64.70
2018-08-11T04:02:53.926Z,65.00
2018-08-11T04:05:23.478Z,64.90
2018-08-11T04:07:53.021Z,65.10
2018-08-11T04:10:22.508Z,65.20
2018-08-11T04:12:51.969Z,65.20
2018-08-11T04:15:21.480Z,66.00
2018-08-11T04:17:50.938Z,65.50
2018-08-11T04:20:20.472Z,65.50
2018-08-11T04:22:49.931Z,65.50
2018-08-11T04:25:19.428Z,65.50
2018-08-11T04:27:48.899Z,65.60
2018-08-11T04:30:18.368Z,65.70
2018-08-11T04:32:47.985Z,65.60
2018-08-11T04:35:17.414Z,65.60
2018-08-11T04:37:46.897Z,66.00
2018-08-11T04:40:16.388Z,65.80
2018-08-11T04:42:45.852Z,65.70
2018-08-11T04:45:15.327Z,65.70
2018-08-11T04:47:44.805Z,65.80
2018-08-11T04:50:14.280Z,65.80
2018-08-11T04:52:43.939Z,65.90
2018-08-11T04:55:13.390Z,65.70
2018-08-11T04:57:42.903Z,65.50
2018-08-11T05:00:12.382Z,65.40
2018-08-11T05:02:41.839Z,65.50
2018-08-11T05:05:11.361Z,65.20
2018-08-11T05:07:40.883Z,65.50
2018-08-11T05:10:10.473Z,65.00
2018-08-11T05:12:39.940Z,64.90
2018-08-11T05:15:09.646Z,64.70
2018-08-11T05:17:39.157Z,64.70
2018-08-11T05:20:08.685Z,64.30
2018-08-11T05:22:38.201Z,64.10
2018-08-11T05:25:07.686Z,64.10
2018-08-11T05:27:37.201Z,63.80
2018-08-11T05:30:07.139Z,63.90
2018-08-11T05:32:36.926Z,63.40
2018-08-11T05:35:06.743Z,63.40
2018-08-11T05:37:36.248Z,63.20
2018-08-11T05:40:05.818Z,63.10
2018-08-11T05:42:35.288Z,62.70
2018-08-11T05:45:05.157Z,62.30
2018-08-11T05:47:34.794Z,62.20
2018-08-11T05:50:04.561Z,61.70
2018-08-11T05:52:34.023Z,61.90
2018-08-11T05:55:03.611Z,61.90
2018-08-11T05:57:33.167Z,62.00
2018-08-11T06:00:02.726Z,62.00
2018-08-11T06:02:32.206Z,62.20
2018-08-11T06:05:01.683Z,62.20
2018-08-11T06:07:31.430Z,61.70
2018-08-11T06:10:00.913Z,61.20
2018-08-11T06:12:30.438Z,61.20
2018-08-11T06:14:59.986Z,61.00
2018-08-11T06:17:29.491Z,60.30
2018-08-11T06:19:58.999Z,60.00
2018-08-11T06:22:28.541Z,60.00
2018-08-11T06:24:58.107Z,59.60
2018-08-11T06:27:27.628Z,58.90
2018-08-11T06:29:57.101Z,59.00
2018-08-11T06:32:26.686Z,58.50
2018-08-11T06:34:56.178Z,58.10
2018-08-11T06:37:25.702Z,57.70
2018-08-11T06:39:55.178Z,57.40
2018-08-11T06:42:24.717Z,57.20
2018-08-11T06:44:54.225Z,56.90
2018-08-11T06:47:23.738Z,56.90
2018-08-11T06:49:53.244Z,56.70
2018-08-11T06:52:23.257Z,56.70
2018-08-11T06:54:52.760Z,56.00
2018-08-11T06:57:22.342Z,56.00
2018-08-11T06:59:52.267Z,55.70
2018-08-11T07:02:21.942Z,55.70
2018-08-11T07:04:51.440Z,55.20
2018-08-11T07:07:21.061Z,54.90
2018-08-11T07:09:50.658Z,55.30
2018-08-11T07:12:20.294Z,55.40
2018-08-11T07:14:49.993Z,55.00
2018-08-11T07:17:19.770Z,55.10
2018-08-11T07:19:49.245Z,55.00
2018-08-11T07:22:18.889Z,53.90
2018-08-11T07:24:48.680Z,54.50
2018-08-11T07:27:18.476Z,54.90
2018-08-11T07:29:48.205Z,54.10
2018-08-11T07:32:18.868Z,54.20
2018-08-11T07:34:48.719Z,54.30
2018-08-11T07:37:18.394Z,54.40
2018-08-11T07:39:49.355Z,54.10
2018-08-11T07:42:19.806Z,53.90
2018-08-11T07:44:49.834Z,53.80
2018-08-11T07:47:20.253Z,53.50
2018-08-11T07:49:50.188Z,53.00
2018-08-11T07:52:20.698Z,53.10
2018-08-11T07:54:50.511Z,52.60
2018-08-11T07:57:20.771Z,51.90
2018-08-11T07:59:50.809Z,51.10
2018-08-11T08:02:20.455Z,52.00
2018-08-11T08:04:50.569Z,51.40
2018-08-11T08:07:20.907Z,50.50
2018-08-11T08:09:51.149Z,50.60
2018-08-11T08:12:20.865Z,50.30
2018-08-11T08:14:50.431Z,50.50
2018-08-11T08:17:21.526Z,50.20
2018-08-11T08:19:51.304Z,50.80
2018-08-11T08:22:21.841Z,51.10
2018-08-11T08:24:53.011Z,51.00
2018-08-11T08:27:22.600Z,51.30
2018-08-11T08:29:52.288Z,51.10
2018-08-11T08:32:23.256Z,51.10
2018-08-11T08:34:53.884Z,51.30
2018-08-11T08:37:24.124Z,51.40
2018-08-11T08:39:54.814Z,51.10
2018-08-11T08:42:24.378Z,51.10
2018-08-11T08:44:53.881Z,50.80
2018-08-11T08:47:23.489Z,50.20
2018-08-11T08:49:53.022Z,50.30
2018-08-11T08:52:22.587Z,50.10
2018-08-11T08:54:52.329Z,49.90
2018-08-11T08:57:21.770Z,49.50
2018-08-11T08:59:52.088Z,47.70
2018-08-11T09:02:21.724Z,48.90
2018-08-11T09:04:51.207Z,47.70
2018-08-11T09:07:20.723Z,48.30
2018-08-11T09:09:50.232Z,48.20
2018-08-11T09:12:19.719Z,48.30
2018-08-11T09:14:49.247Z,47.50
2018-08-11T09:17:18.882Z,47.60
2018-08-11T09:19:48.371Z,46.50
2018-08-11T09:22:18.044Z,46.00
2018-08-11T09:24:47.520Z,46.10
2018-08-11T09:27:16.986Z,43.30
2018-08-11T09:29:46.451Z,43.70
2018-08-11T09:32:16.015Z,44.40
2018-08-11T09:34:45.565Z,42.80
2018-08-11T09:37:15.055Z,43.70
2018-08-11T09:39:44.586Z,43.50
2018-08-11T09:42:14.053Z,43.00
2018-08-11T09:44:43.557Z,42.90
2018-08-11T09:47:13.033Z,43.10
2018-08-11T09:49:42.527Z,43.20
2018-08-11T09:52:12.024Z,43.40
2018-08-11T09:54:41.513Z,42.90
2018-08-11T09:57:11.096Z,41.40
2018-08-11T09:59:40.633Z,41.60
2018-08-11T10:02:15.491Z,40.90
2018-08-11T10:04:45.009Z,41.50
2018-08-11T10:07:14.499Z,41.10
2018-08-11T10:09:43.996Z,40.10
2018-08-11T10:12:13.576Z,40.60
2018-08-11T10:14:43.171Z,40.40
2018-08-11T10:17:12.727Z,41.50
2018-08-11T10:19:42.206Z,41.20
2018-08-11T10:22:11.765Z,40.50
2018-08-11T10:24:41.430Z,39.90
2018-08-11T10:27:10.912Z,39.00
2018-08-11T10:29:40.413Z,39.30
2018-08-11T10:32:09.890Z,39.70
2018-08-11T10:34:39.378Z,40.00
2018-08-11T10:37:09.001Z,39.50
2018-08-11T10:39:38.538Z,38.80
2018-08-11T10:42:08.075Z,39.50
2018-08-11T10:44:37.619Z,39.50
2018-08-11T10:47:07.204Z,38.50
2018-08-11T10:49:36.816Z,38.90
2018-08-11T10:52:06.344Z,36.80
2018-08-11T10:54:35.947Z,37.60
2018-08-11T10:57:05.586Z,37.30
2018-08-11T10:59:35.048Z,37.90
2018-08-11T11:02:04.718Z,37.90
2018-08-11T11:04:34.318Z,37.10
2018-08-11T11:07:03.909Z,37.10
2018-08-11T11:09:33.520Z,36.70
2018-08-11T11:12:03.112Z,37.70
2018-08-11T11:14:32.778Z,37.10
2018-08-11T11:17:02.344Z,37.20
2018-08-11T11:19:32.058Z,37.20
2018-08-11T11:22:01.604Z,36.80
2018-08-11T11:24:31.143Z,36.90
2018-08-11T11:27:00.591Z,37.40
2018-08-11T11:29:30.171Z,37.30
2018-08-11T11:31:59.692Z,36.80
2018-08-11T11:34:29.150Z,36.70
2018-08-11T11:36:58.742Z,36.80
2018-08-11T11:39:28.241Z,36.90
2018-08-11T11:41:57.852Z,36.20
2018-08-11T11:44:28.339Z,36.90
2018-08-11T11:46:57.840Z,36.80
2018-08-11T11:49:27.364Z,36.70
2018-08-11T11:51:56.846Z,36.80
2018-08-11T11:54:26.304Z,36.70
2018-08-11T11:56:55.767Z,35.70
2018-08-11T11:59:25.256Z,35.50
2018-08-11T12:01:54.833Z,36.30
2018-08-11T12:04:24.353Z,35.40
2018-08-11T12:06:53.829Z,34.90
2018-08-11T12:09:23.322Z,33.90
2018-08-11T12:11:52.788Z,34.70
2018-08-11T12:14:22.312Z,34.90
2018-08-11T12:16:51.774Z,34.40
2018-08-11T12:19:21.300Z,34.30
2018-08-11T12:21:50.806Z,33.90
2018-08-11T12:24:20.267Z,33.60
2018-08-11T12:26:49.778Z,33.80
2018-08-11T12:29:19.383Z,33.90
2018-08-11T12:31:48.827Z,33.90
2018-08-11T12:34:18.342Z,34.10
2018-08-11T12:36:47.840Z,33.80
2018-08-11T12:39:17.336Z,32.60
2018-08-11T12:41:46.867Z,33.00
2018-08-11T12:44:16.365Z,32.50
2018-08-11T12:46:45.816Z,32.60
2018-08-11T12:49:15.280Z,32.60
2018-08-11T12:51:44.796Z,33.00
2018-08-11T12:54:14.296Z,33.60
2018-08-11T12:56:43.821Z,35.00
2018-08-11T12:59:13.269Z,35.90
2018-08-11T13:01:42.852Z,36.80
2018-08-11T13:04:12.322Z,36.60
2018-08-11T13:06:41.796Z,38.00
2018-08-11T13:09:11.611Z,38.80
2018-08-11T13:11:41.282Z,40.10
2018-08-11T13:14:10.751Z,40.30
2018-08-11T13:16:40.226Z,41.00
2018-08-11T13:19:09.828Z,40.90
2018-08-11T13:21:39.295Z,41.40
2018-08-11T13:24:08.750Z,41.80
2018-08-11T13:26:38.220Z,42.00
2018-08-11T13:29:07.657Z,42.20
2018-08-11T13:31:37.128Z,42.40
2018-08-11T13:34:06.583Z,43.00
2018-08-11T13:36:36.046Z,43.10
2018-08-11T13:39:07.914Z,43.20
2018-08-11T13:41:40.111Z,43.40
2018-08-11T13:44:09.596Z,43.10
2018-08-11T13:46:39.559Z,43.00
2018-08-11T13:49:09.717Z,42.80
2018-08-11T13:51:39.471Z,42.20
2018-08-11T13:54:08.979Z,42.40
2018-08-11T13:56:39.137Z,42.20
2018-08-11T13:59:08.842Z,42.60
2018-08-11T14:01:38.334Z,42.60
2018-08-11T14:04:07.863Z,43.00
2018-08-11T14:06:37.330Z,42.70
2018-08-11T14:09:07.660Z,42.50
2018-08-11T14:11:37.216Z,42.40
2018-08-11T14:14:06.820Z,42.60
2018-08-11T14:16:36.326Z,42.70
2018-08-11T14:19:06.340Z,42.60
2018-08-11T14:21:35.867Z,42.70
2018-08-11T14:24:05.502Z,42.80
2018-08-11T14:26:34.994Z,42.90
2018-08-11T14:29:05.048Z,43.40
2018-08-11T14:31:34.608Z,43.40
2018-08-11T14:34:04.372Z,43.30
2018-08-11T14:36:33.921Z,43.40
2018-08-11T14:39:04.146Z,43.60
2018-08-11T14:41:33.708Z,43.60
2018-08-11T14:44:03.346Z,43.70
2018-08-11T14:46:32.868Z,43.70
2018-08-11T14:49:02.399Z,43.90
2018-08-11T14:51:32.096Z,44.00
2018-08-11T14:54:01.575Z,44.30
2018-08-11T14:56:31.368Z,44.40
2018-08-11T14:59:00.906Z,45.00
2018-08-11T15:01:30.585Z,45.20
2018-08-11T15:04:00.087Z,45.60
2018-08-11T15:06:29.674Z,45.70
2018-08-11T15:08:59.249Z,45.70
2018-08-11T15:11:28.752Z,45.80
2018-08-11T15:13:58.631Z,45.90
2018-08-11T15:16:28.234Z,45.90
2018-08-11T15:18:57.927Z,45.30
2018-08-11T15:21:27.477Z,45.20
2018-08-11T15:23:58.370Z,45.00
2018-08-11T15:26:28.486Z,45.00
2018-08-11T15:28:58.347Z,44.90
2018-08-11T15:31:27.866Z,44.30
2018-08-11T15:33:57.480Z,44.20
2018-08-11T15:36:27.033Z,44.00
2018-08-11T15:38:56.586Z,43.80
2018-08-11T15:41:26.165Z,43.80
2018-08-11T15:43:55.644Z,43.90
2018-08-11T15:46:25.200Z,44.20
2018-08-11T15:48:54.814Z,44.40
2018-08-11T15:51:24.555Z,44.00
2018-08-11T15:53:54.161Z,44.30
2018-08-11T15:56:23.614Z,45.30
2018-08-11T15:58:53.100Z,45.80
2018-08-11T16:01:22.650Z,47.50
2018-08-11T16:03:52.283Z,47.30
2018-08-11T16:06:22.151Z,47.90
2018-08-11T16:08:51.633Z,48.60
2018-08-11T16:11:21.164Z,49.50
2018-08-11T16:13:50.849Z,51.00
2018-08-11T16:16:20.381Z,50.70
2018-08-11T16:18:49.836Z,51.60
2018-08-11T16:21:19.344Z,52.40
2018-08-11T16:23:48.798Z,52.70
2018-08-11T16:26:18.371Z,53.10
2018-08-11T16:28:47.935Z,54.10
2018-08-11T16:31:17.431Z,53.70
2018-08-11T16:33:46.907Z,53.70
2018-08-11T16:36:16.417Z,53.70
2018-08-11T16:38:45.936Z,54.40
2018-08-11T16:41:15.426Z,54.30
2018-08-11T16:43:44.964Z,54.60
2018-08-11T16:46:14.417Z,54.70
2018-08-11T16:48:43.988Z,55.10
2018-08-11T16:51:13.499Z,55.70
2018-08-11T16:53:43.109Z,55.50
2018-08-11T16:56:12.595Z,55.90
2018-08-11T16:58:42.095Z,56.10
2018-08-11T17:01:11.581Z,56.10
2018-08-11T17:03:41.109Z,56.20
2018-08-11T17:06:10.610Z,56.50
2018-08-11T17:08:40.194Z,57.00
2018-08-11T17:11:09.980Z,57.10
2018-08-11T17:13:39.517Z,57.50
2018-08-11T17:16:09.001Z,57.90
2018-08-11T17:18:38.623Z,58.20
2018-08-11T17:21:08.068Z,58.80
2018-08-11T17:23:37.642Z,60.00
2018-08-11T17:26:07.333Z,60.30
2018-08-11T17:28:36.932Z,61.10
2018-08-11T17:31:06.731Z,61.70
2018-08-11T17:33:37.241Z,62.20
2018-08-11T17:36:07.400Z,62.30
2018-08-11T17:38:37.563Z,62.30
2018-08-11T17:41:07.781Z,62.40
2018-08-11T17:43:37.475Z,62.40
2018-08-11T17:46:07.383Z,62.30
2018-08-11T17:48:38.165Z,62.70
2018-08-11T17:51:07.780Z,62.70
2018-08-11T17:53:37.712Z,63.10
2018-08-11T17:56:08.096Z,62.90
2018-08-11T17:58:37.813Z,63.30
2018-08-11T18:01:07.878Z,63.70
2018-08-11T18:03:37.460Z,64.00
2018-08-11T18:06:08.092Z,64.30
2018-08-11T18:08:37.818Z,64.10
2018-08-11T18:11:07.570Z,64.30
2018-08-11T18:13:37.311Z,64.40
2018-08-11T18:16:06.890Z,64.50
2018-08-11T18:18:39.123Z,64.60
2018-08-11T18:21:08.705Z,65.00
2018-08-11T18:23:38.177Z,65.10
2018-08-11T18:26:07.697Z,65.40
2018-08-11T18:28:37.289Z,65.70
2018-08-11T18:31:07.070Z,66.00
2018-08-11T18:33:36.560Z,66.20
2018-08-11T18:36:06.162Z,66.50
2018-08-11T18:38:35.693Z,66.60
2018-08-11T18:41:05.356Z,66.70
2018-08-11T18:43:34.888Z,66.90
2018-08-11T18:46:04.500Z,67.00
2018-08-11T18:48:34.368Z,67.30
2018-08-11T18:51:04.137Z,67.40
2018-08-11T18:53:33.704Z,67.40
2018-08-11T18:56:03.355Z,67.60
2018-08-11T18:58:33.213Z,67.70
2018-08-11T19:01:02.979Z,67.80
2018-08-11T19:03:32.580Z,68.00
2018-08-11T19:06:02.714Z,68.30
2018-08-11T19:08:32.492Z,68.40
2018-08-11T19:11:02.136Z,68.80
2018-08-11T19:13:31.697Z,68.90
2018-08-11T19:16:01.259Z,68.90
2018-08-11T19:18:31.280Z,69.10
2018-08-11T19:21:00.858Z,69.40
2018-08-11T19:23:30.421Z,69.30
2018-08-11T19:25:59.978Z,69.20
2018-08-11T19:28:29.462Z,69.50
2018-08-11T19:30:59.043Z,69.80
2018-08-11T19:33:28.505Z,70.20
2018-08-11T19:35:58.013Z,70.20
2018-08-11T19:38:27.509Z,70.30
2018-08-11T19:40:57.144Z,70.60
2018-08-11T19:43:26.756Z,70.80
2018-08-11T19:45:56.320Z,70.80
2018-08-11T19:48:25.858Z,70.80
2018-08-11T19:50:55.424Z,71.00
2018-08-11T19:53:25.025Z,71.30
2018-08-11T19:55:54.552Z,71.30
2018-08-11T19:58:25.331Z,71.30
2018-08-11T20:00:55.632Z,71.20
2018-08-11T20:03:25.246Z,71.20
2018-08-11T20:05:55.375Z,71.20
2018-08-11T20:08:25.045Z,71.20
2018-08-11T20:10:54.890Z,71.30
2018-08-11T20:13:24.441Z,71.10
2018-08-11T20:15:54.120Z,71.10
2018-08-11T20:18:23.897Z,71.10
2018-08-11T20:20:53.790Z,71.10
2018-08-11T20:23:23.435Z,71.30
2018-08-11T20:25:52.940Z,71.50
2018-08-11T20:28:22.731Z,71.70
2018-08-11T20:30:52.217Z,71.80
2018-08-11T20:33:21.701Z,71.90
2018-08-11T20:35:51.209Z,72.30
2018-08-11T20:38:21.153Z,72.60
2018-08-11T20:40:51.343Z,72.80
2018-08-11T20:43:21.299Z,72.70
2018-08-11T20:45:50.848Z,72.70
2018-08-11T20:48:20.484Z,72.70
2018-08-11T20:50:50.074Z,72.70
2018-08-11T20:53:19.657Z,72.80
2018-08-11T20:55:49.292Z,73.00
2018-08-11T20:58:18.794Z,72.90
2018-08-11T21:00:48.274Z,72.90
2018-08-11T21:03:17.829Z,73.00
2018-08-11T21:05:47.427Z,73.10
2018-08-11T21:08:17.155Z,73.10
2018-08-11T21:10:46.782Z,73.20
2018-08-11T21:13:16.824Z,73.60
2018-08-11T21:15:46.463Z,73.70
2018-08-11T21:18:16.041Z,73.70
2018-08-11T21:20:45.528Z,73.50
2018-08-11T21:23:15.219Z,73.90
2018-08-11T21:25:44.859Z,74.10
2018-08-11T21:28:14.420Z,74.10
2018-08-11T21:30:43.963Z,74.30
2018-08-11T21:33:14.416Z,74.60
2018-08-11T21:35:43.997Z,74.80
2018-08-11T21:38:13.505Z,74.90
2018-08-11T21:40:43.067Z,75.00
2018-08-11T21:43:12.652Z,75.30
2018-08-11T21:45:42.357Z,75.30
2018-08-11T21:48:12.026Z,75.20
2018-08-11T21:50:41.642Z,75.20
2018-08-11T21:53:11.518Z,75.70
2018-08-11T21:55:41.074Z,75.50
2018-08-11T21:58:11.999Z,76.00
2018-08-11T22:00:41.736Z,76.00
2018-08-11T22:03:11.399Z,76.20
2018-08-11T22:05:41.102Z,76.20
2018-08-11T22:08:10.810Z,76.20
2018-08-11T22:10:41.918Z,76.20
2018-08-11T22:13:12.375Z,76.00
2018-08-11T22:15:42.129Z,76.00
2018-08-11T22:18:12.863Z,75.90
2018-08-11T22:20:42.392Z,76.00
2018-08-11T22:23:12.039Z,75.90
2018-08-11T22:25:41.601Z,75.70
2018-08-11T22:28:11.111Z,75.60
2018-08-11T22:30:41.323Z,75.50
2018-08-11T22:33:10.804Z,75.80
2018-08-11T22:35:40.342Z,75.50
2018-08-11T22:38:10.243Z,75.40
2018-08-11T22:40:39.952Z,75.50
2018-08-11T22:43:10.395Z,75.50
2018-08-11T22:45:39.958Z,75.50
2018-08-11T22:48:09.693Z,75.50
2018-08-11T22:50:39.156Z,75.50
2018-08-11T22:53:08.714Z,75.30
2018-08-11T22:55:38.280Z,75.10
2018-08-11T22:58:07.855Z,74.90
2018-08-11T23:00:37.409Z,75.00
2018-08-11T23:03:06.910Z,75.00
2018-08-11T23:05:36.764Z,75.00
2018-08-11T23:08:06.060Z,75.00
2018-08-11T23:10:35.782Z,75.20
2018-08-11T23:13:05.298Z,75.50
2018-08-11T23:15:35.111Z,75.50
2018-08-11T23:18:04.444Z,75.10
2018-08-11T23:20:33.669Z,75.30
2018-08-11T23:23:02.952Z,75.10
2018-08-11T23:25:32.204Z,75.10
2018-08-11T23:28:01.509Z,75.10
2018-08-11T23:30:30.978Z,74.90
2018-08-11T23:33:00.408Z,74.80
2018-08-11T23:35:30.138Z,75.00
2018-08-11T23:37:59.670Z,75.10
2018-08-11T23:40:29.166Z,75.00
2018-08-11T23:42:58.696Z,75.30
2018-08-11T23:45:28.204Z,75.30
2018-08-11T23:47:58.141Z,75.30
2018-08-11T23:50:27.625Z,75.40
2018-08-11T23:52:57.213Z,75.50
2018-08-11T23:55:26.669Z,75.40
2018-08-11T23:57:56.416Z,75.50
